Amis Glory — 3FSN5 — position and weather

sailwx.info

Track history (hours):
 
Tides and Currents Weather Stations Pressure Air Temp Water Temp Dewpoint Dewpoint Depression Visibility Wind Speed Wind Dir Waves Ship Positions

Amis Glory

Last reported at 2017-Nov-02 19:20 UTC. Time now 2017-Dec-16 15:07 UTC.
Position N 28°41' W 013°03'.
Warning: this ship's position is 43 days out of date.

Length 189 m; draft 6.9 m.

Type: Cargo ship. MMSI: 374710000.

Date/timePositionNaut miles runAvg speedWind from/ knotsBaromVisibWave heightAir tempDewpointWater temp
2017-Nov-02 19:20N 28°41' W 013°03'3314.5
2017-Nov-02 17:04N 28°13' W 013°23'714.2
2017-Nov-02 16:37N 28°07' W 013°27'214.2
2017-Nov-02 16:29N 28°06' W 013°28'714.3
2017-Nov-02 15:59N 27°60' W 013°33'714.4
2017-Nov-02 15:28N 27°53' W 013°37'814.5
2017-Nov-02 14:55N 27°47' W 013°42'914.5
2017-Nov-02 14:16N 27°40' W 013°50'414.2
2017-Nov-02 14:00N 27°38' W 013°53'1113.8
2017-Nov-02 13:15N 27°31' W 014°02'2313.8
2017-Nov-02 11:36N 27°15' W 014°20'414.5
2017-Nov-02 11:19N 27°12' W 014°23'19113.8
2017-Nov-01 21:31N 24°53' W 016°49'55513.6
2017-Oct-31 04:44N 15°42' W 018°06'514.6
2017-Oct-31 04:25N 15°38' W 018°05'1114.7
2017-Oct-31 03:39N 15°26' W 018°04'214.8
2017-Oct-31 03:30N 15°24' W 018°04'714.6
2017-Oct-31 03:00N 15°17' W 018°04'  
Track history (hours):
 
Tides and Currents Weather Stations Pressure Air Temp Water Temp Dewpoint Dewpoint Depression Visibility Wind Speed Wind Dir Waves Ship Positions

Amis Glory

Last reported at 2017-Nov-02 19:20 UTC. Time now 2017-Dec-16 15:07 UTC.
Position N 28°41' W 013°03'.
Warning: this ship's position is 43 days out of date.

Length 189 m; draft 6.9 m.

Type: Cargo ship. MMSI: 374710000.

Date/timePositionNaut miles runAvg speedWind from/ knotsBaromVisibWave heightAir tempDewpointWater temp
2017-Nov-02 19:20N 28°41' W 013°03'3314.5
2017-Nov-02 17:04N 28°13' W 013°23'714.2
2017-Nov-02 16:37N 28°07' W 013°27'214.2
2017-Nov-02 16:29N 28°06' W 013°28'714.3
2017-Nov-02 15:59N 27°60' W 013°33'714.4
2017-Nov-02 15:28N 27°53' W 013°37'814.5
2017-Nov-02 14:55N 27°47' W 013°42'914.5
2017-Nov-02 14:16N 27°40' W 013°50'414.2
2017-Nov-02 14:00N 27°38' W 013°53'1113.8
2017-Nov-02 13:15N 27°31' W 014°02'2313.8
2017-Nov-02 11:36N 27°15' W 014°20'414.5
2017-Nov-02 11:19N 27°12' W 014°23'19113.8
2017-Nov-01 21:31N 24°53' W 016°49'55513.6
2017-Oct-31 04:44N 15°42' W 018°06'514.6
2017-Oct-31 04:25N 15°38' W 018°05'1114.7
2017-Oct-31 03:39N 15°26' W 018°04'214.8
2017-Oct-31 03:30N 15°24' W 018°04'714.6
2017-Oct-31 03:00N 15°17' W 018°04'  

Dump ship's entire track history